SPTN/TCQ METAR and TAF weather

Enter ICAO airport designator
Station Type Date Time Source
SPTN METAR 2020/09/19 19:00 UTC NOAA

SPTN 191900Z 23010KT CAVOK 21/11 Q1014 RMK PP000


Station Type Date Time Source
SPTN Decoded METAR 2020/09/19 19:00 UTC NOAA

Tacna, Peru (SPTN) 18-04S 070-18W 469M
Sep 19, 2020 - 03:00 PM EDT / 2020.09.19 1900 UTC
Wind: from the SW (230 degrees) at 12 MPH (10 KT):0
Visibility: greater than 7 mile(s):0
Temperature: 69 F (21 C)
Dew Point: 51 F (11 C)
Relative Humidity: 52%
Pressure (altimeter): 29.94 in. Hg (1014 hPa)
ob: SPTN 191900Z 23010KT CAVOK 21/11 Q1014 RMK PP000
cycle: 19

Station Type Date Time Source
SPTN TAF 2020/09/19 18:33 UTC NOAA

TAF SPTN 191710Z 1918/2018 24008KT CAVOK TX20/1919Z TN12/2010Z
FM192230 VRB05KT 9999 SCT050
FM201230 22007KT CAVOK

Example: see airport list